Time;durP1;ratioP1;P1;durP2;ratioP2;P2;SDS_P1;SDS_P2;PMS_P1;PMS_P2;Temp;Humidity;BMP_temperature;BMP_pressure;BME280_temperature;BME280_humidity;BME280_pressure;Samples;Min_cycle;Max_cycle;Signal;HPM_P1;HPM_P2
2023/12/06 00:00:15;;;;;;;142.18;62.88;;;1.20;99.90;;;;;;5113059;28;20032;-75
2023/12/06 00:02:40;;;;;;;149.02;63.53;;;1.30;99.90;;;;;;5111041;28;20020;-73
2023/12/06 00:05:10;;;;;;;147.27;64.65;;;1.30;99.90;;;;;;5111330;28;20666;-75
2023/12/06 00:07:36;;;;;;;157.68;66.32;;;1.30;99.90;;;;;;5111927;28;20051;-75
2023/12/06 00:10:02;;;;;;;160.55;66.97;;;1.30;99.90;;;;;;5112346;28;20020;-75
2023/12/06 00:12:28;;;;;;;151.82;64.25;;;1.20;99.90;;;;;;5111029;28;20019;-75
2023/12/06 00:14:53;;;;;;;154.48;65.78;;;1.30;99.90;;;;;;5111202;28;20045;-75
2023/12/06 00:17:19;;;;;;;153.38;66.68;;;1.30;99.90;;;;;;5110853;28;20049;-73
2023/12/06 00:19:44;;;;;;;152.45;65.95;;;1.20;99.90;;;;;;5111330;28;20032;-74
2023/12/06 00:22:10;;;;;;;163.60;68.70;;;1.20;99.90;;;;;;5111950;28;20030;-74
2023/12/06 00:24:37;;;;;;;155.13;66.03;;;1.20;99.90;;;;;;5112796;28;20027;-75
2023/12/06 00:27:02;;;;;;;156.13;64.95;;;1.30;99.90;;;;;;5112758;28;20023;-75
2023/12/06 00:29:28;;;;;;;150.63;66.15;;;1.30;99.90;;;;;;5111877;28;20066;-73
2023/12/06 00:31:53;;;;;;;161.40;66.13;;;1.30;99.90;;;;;;5114016;28;20024;-75
2023/12/06 00:34:19;;;;;;;160.63;66.40;;;1.30;99.90;;;;;;5114911;28;20035;-74
2023/12/06 00:36:45;;;;;;;163.48;67.70;;;1.30;99.90;;;;;;5112541;28;20409;-74
2023/12/06 00:39:13;;;;;;;161.40;66.75;;;1.20;99.90;;;;;;5113477;28;20024;-74
2023/12/06 00:41:39;;;;;;;149.43;64.10;;;1.30;99.90;;;;;;5113254;28;20027;-74
2023/12/06 00:44:05;;;;;;;155.00;64.28;;;1.40;99.90;;;;;;5112306;28;20020;-74
2023/12/06 00:46:31;;;;;;;144.23;62.35;;;1.30;99.90;;;;;;5112076;28;20023;-74
2023/12/06 00:48:58;;;;;;;136.57;59.05;;;1.40;99.90;;;;;;5111791;28;20026;-74
2023/12/06 00:51:24;;;;;;;151.82;64.60;;;1.30;99.90;;;;;;5111782;28;20432;-75
2023/12/06 00:53:50;;;;;;;136.30;61.33;;;1.30;99.90;;;;;;5112251;28;20023;-73
2023/12/06 00:56:16;;;;;;;138.25;60.90;;;1.40;99.90;;;;;;5112276;28;20497;-73
2023/12/06 00:58:43;;;;;;;138.15;59.58;;;1.40;99.90;;;;;;5111501;28;20039;-74
2023/12/06 01:01:11;;;;;;;134.70;59.45;;;1.30;99.90;;;;;;5108559;28;20040;-74
2023/12/06 01:03:37;;;;;;;137.35;60.30;;;1.30;99.90;;;;;;5093987;28;20077;-73
2023/12/06 01:06:03;;;;;;;133.63;58.78;;;1.30;99.90;;;;;;5099868;28;20020;-73
2023/12/06 01:08:29;;;;;;;130.48;58.75;;;1.40;99.90;;;;;;5091874;28;20035;-73
2023/12/06 01:10:54;;;;;;;123.22;56.20;;;1.40;99.90;;;;;;5091399;28;20215;-73
2023/12/06 01:13:20;;;;;;;134.50;56.95;;;1.40;99.90;;;;;;5091122;28;20028;-72
2023/12/06 01:15:46;;;;;;;130.65;58.65;;;1.40;99.90;;;;;;5091416;28;20028;-73
2023/12/06 01:18:12;;;;;;;132.32;57.45;;;1.40;99.90;;;;;;5091120;28;20032;-73
2023/12/06 01:20:38;;;;;;;128.02;56.60;;;1.30;99.90;;;;;;5091427;28;20103;-73
2023/12/06 01:23:04;;;;;;;124.75;57.72;;;1.30;99.90;;;;;;5091989;28;20107;-73
2023/12/06 01:25:30;;;;;;;133.93;56.60;;;1.30;99.90;;;;;;5091911;28;20017;-72
2023/12/06 01:27:56;;;;;;;127.90;55.00;;;1.40;99.90;;;;;;5091656;28;20027;-73
2023/12/06 01:30:21;;;;;;;129.68;57.15;;;1.40;99.90;;;;;;5094838;28;20149;-73
2023/12/06 01:32:47;;;;;;;132.57;58.03;;;1.40;99.90;;;;;;5093087;28;20099;-74
2023/12/06 01:35:13;;;;;;;133.90;59.38;;;1.40;99.90;;;;;;5096245;28;20363;-73
2023/12/06 01:37:39;;;;;;;133.73;58.45;;;1.40;99.90;;;;;;5099170;28;20032;-74
2023/12/06 01:40:05;;;;;;;133.13;60.63;;;1.40;99.90;;;;;;5100199;28;20031;-74
2023/12/06 01:42:31;;;;;;;138.50;59.92;;;1.40;99.90;;;;;;5104298;28;20051;-73
2023/12/06 01:44:56;;;;;;;140.60;60.05;;;1.40;99.90;;;;;;5096954;28;20031;-74
2023/12/06 01:47:24;;;;;;;146.30;60.63;;;1.40;99.90;;;;;;5094310;28;20028;-73
2023/12/06 01:49:50;;;;;;;139.60;60.50;;;1.40;99.90;;;;;;5095089;28;20089;-74
2023/12/06 01:52:16;;;;;;;148.40;63.60;;;1.40;99.90;;;;;;5094663;28;20020;-74
2023/12/06 01:54:42;;;;;;;136.13;60.33;;;1.40;99.90;;;;;;5094661;28;20383;-73
2023/12/06 01:57:07;;;;;;;147.25;63.55;;;1.50;99.90;;;;;;5094420;28;20043;-75
2023/12/06 01:59:34;;;;;;;154.07;65.75;;;1.50;99.90;;;;;;5094174;28;20028;-73
2023/12/06 02:01:59;;;;;;;152.63;64.53;;;1.50;99.90;;;;;;5094046;28;20432;-74
2023/12/06 02:04:25;;;;;;;155.07;64.18;;;1.50;99.90;;;;;;5094191;28;20027;-75
2023/12/06 02:06:51;;;;;;;158.27;65.55;;;1.50;99.90;;;;;;5094154;28;20378;-74
2023/12/06 02:09:17;;;;;;;156.50;66.72;;;1.50;99.90;;;;;;5094931;28;20024;-73
2023/12/06 02:11:43;;;;;;;145.38;63.65;;;1.40;99.90;;;;;;5094048;28;20447;-75
2023/12/06 02:14:09;;;;;;;154.02;64.78;;;1.60;99.90;;;;;;5094244;28;20062;-74
2023/12/06 02:16:35;;;;;;;153.80;66.30;;;1.60;99.90;;;;;;5093989;28;20052;-72
2023/12/06 02:19:01;;;;;;;145.95;65.25;;;1.60;99.90;;;;;;5094086;28;20421;-72
2023/12/06 02:21:27;;;;;;;157.13;66.78;;;1.60;99.90;;;;;;5094001;28;20028;-74
2023/12/06 02:23:56;;;;;;;155.40;66.28;;;1.60;99.90;;;;;;5094824;28;20032;-72
2023/12/06 02:26:22;;;;;;;165.40;68.70;;;1.60;99.90;;;;;;5094185;28;20029;-73
2023/12/06 02:28:53;;;;;;;165.63;67.93;;;1.50;99.90;;;;;;5094252;28;20020;-73
2023/12/06 02:31:19;;;;;;;163.88;69.72;;;1.60;99.90;;;;;;5093725;28;20042;-74
2023/12/06 02:33:46;;;;;;;148.85;64.93;;;1.70;99.90;;;;;;5093094;28;20499;-74
2023/12/06 02:36:12;;;;;;;164.35;69.50;;;1.60;99.90;;;;;;5092657;28;20390;-74
2023/12/06 02:38:40;;;;;;;168.48;69.13;;;1.60;99.90;;;;;;5093317;28;20027;-73
2023/12/06 02:41:07;;;;;;;160.20;66.93;;;1.60;99.90;;;;;;5093878;28;20024;-74
2023/12/06 02:43:33;;;;;;;163.40;69.78;;;1.70;99.90;;;;;;5093131;28;20024;-74
2023/12/06 02:45:59;;;;;;;169.75;69.90;;;1.60;99.90;;;;;;5093343;28;20438;-74
2023/12/06 02:48:24;;;;;;;160.23;67.45;;;1.60;99.90;;;;;;5093626;28;20575;-74
2023/12/06 02:50:50;;;;;;;160.65;68.00;;;1.70;99.90;;;;;;5093759;28;20032;-73
2023/12/06 02:53:15;;;;;;;173.48;72.65;;;1.70;99.90;;;;;;5093291;28;20050;-74
2023/12/06 02:55:41;;;;;;;164.85;69.22;;;1.70;99.90;;;;;;5093441;28;20095;-73
2023/12/06 02:58:06;;;;;;;162.32;70.57;;;1.70;99.90;;;;;;5092900;28;20028;-73
2023/12/06 03:00:32;;;;;;;161.73;68.60;;;1.70;99.90;;;;;;5093142;28;20028;-73
2023/12/06 03:02:58;;;;;;;173.70;70.00;;;1.70;99.90;;;;;;5093066;28;20023;-74
2023/12/06 03:05:23;;;;;;;168.57;70.25;;;1.60;99.90;;;;;;5093453;28;20099;-73
2023/12/06 03:07:49;;;;;;;166.88;69.00;;;1.60;99.90;;;;;;5093783;28;20087;-74
2023/12/06 03:10:14;;;;;;;167.68;69.22;;;1.60;99.90;;;;;;5097781;28;20036;-77
2023/12/06 03:12:40;;;;;;;167.30;68.63;;;1.60;99.90;;;;;;5099888;28;20024;-73
2023/12/06 03:15:06;;;;;;;159.23;68.40;;;1.60;99.90;;;;;;5109152;28;20103;-74
2023/12/06 03:17:32;;;;;;;161.48;69.50;;;1.70;99.90;;;;;;5119224;28;20077;-74
2023/12/06 03:19:57;;;;;;;161.98;69.82;;;1.80;99.90;;;;;;5094379;28;20020;-74
2023/12/06 03:22:23;;;;;;;152.35;65.53;;;1.80;99.90;;;;;;5094820;28;20027;-74
2023/12/06 03:24:48;;;;;;;156.50;68.20;;;1.70;99.90;;;;;;5114995;28;20051;-75
2023/12/06 03:27:14;;;;;;;165.98;68.80;;;1.70;99.90;;;;;;5114356;28;20019;-74
2023/12/06 03:29:40;;;;;;;161.98;67.53;;;1.80;99.90;;;;;;5113648;28;20048;-75
2023/12/06 03:32:05;;;;;;;155.48;67.95;;;1.70;99.90;;;;;;5115389;28;20091;-75
2023/12/06 03:34:31;;;;;;;161.27;66.50;;;1.70;99.90;;;;;;5097414;28;20028;-75
2023/12/06 03:36:58;;;;;;;159.52;67.80;;;1.90;99.90;;;;;;5095146;28;20032;-75
2023/12/06 03:39:24;;;;;;;163.73;69.45;;;1.70;99.90;;;;;;5102122;28;20081;-75
2023/12/06 03:41:50;;;;;;;157.27;67.97;;;1.60;99.90;;;;;;5115279;28;20049;-75
2023/12/06 03:44:15;;;;;;;156.05;67.35;;;1.70;99.90;;;;;;5101849;28;20059;-75
2023/12/06 03:46:41;;;;;;;153.57;67.18;;;1.80;99.90;;;;;;5098986;28;20026;-75
2023/12/06 03:49:07;;;;;;;159.60;66.72;;;1.80;99.90;;;;;;5106610;28;20036;-75
2023/12/06 03:51:32;;;;;;;148.60;65.32;;;1.90;99.90;;;;;;5109127;28;20050;-74
2023/12/06 03:53:58;;;;;;;150.50;65.38;;;1.80;99.90;;;;;;5117936;28;20052;-74
2023/12/06 03:56:24;;;;;;;156.20;65.90;;;1.90;99.90;;;;;;5106443;28;20020;-75
2023/12/06 03:58:50;;;;;;;164.23;67.90;;;1.90;99.90;;;;;;5103225;28;20134;-75
2023/12/06 04:01:16;;;;;;;158.57;67.65;;;1.90;99.90;;;;;;5098782;28;20429;-76
2023/12/06 04:03:42;;;;;;;157.43;65.32;;;1.90;99.90;;;;;;5100521;28;20024;-75
2023/12/06 04:06:07;;;;;;;163.77;68.00;;;1.90;99.90;;;;;;5096659;28;20081;-75
2023/12/06 04:08:33;;;;;;;161.38;67.70;;;1.90;99.90;;;;;;5096415;28;20486;-75
2023/12/06 04:10:58;;;;;;;158.80;70.22;;;1.90;99.90;;;;;;5091824;28;20475;-74
2023/12/06 04:13:24;;;;;;;157.35;66.85;;;1.90;99.90;;;;;;5101670;28;20027;-73
2023/12/06 04:15:49;;;;;;;156.68;64.53;;;1.90;99.90;;;;;;5112149;28;20020;-75
2023/12/06 04:18:15;;;;;;;154.23;67.13;;;1.90;99.90;;;;;;5104634;28;20032;-75
2023/12/06 04:20:41;;;;;;;161.50;69.35;;;1.80;99.90;;;;;;5092679;28;20437;-77
2023/12/06 04:23:06;;;;;;;157.05;67.78;;;1.90;99.90;;;;;;5093936;28;20019;-77
2023/12/06 04:25:32;;;;;;;164.02;69.32;;;1.90;99.90;;;;;;5092621;28;20016;-73
2023/12/06 04:27:57;;;;;;;168.70;71.00;;;1.90;99.90;;;;;;5090968;28;20386;-76
2023/12/06 04:30:23;;;;;;;167.00;69.07;;;2.00;99.90;;;;;;5092550;28;20028;-75
2023/12/06 04:32:48;;;;;;;164.63;71.38;;;2.00;99.90;;;;;;5092039;28;20060;-78
2023/12/06 04:35:14;;;;;;;157.75;66.43;;;2.00;99.90;;;;;;5092388;28;20047;-75
2023/12/06 04:37:40;;;;;;;162.85;69.53;;;2.00;99.90;;;;;;5092063;28;20474;-75
2023/12/06 04:40:07;;;;;;;168.55;70.72;;;2.00;99.90;;;;;;5090407;28;20035;-75
2023/12/06 04:42:33;;;;;;;169.52;72.80;;;2.00;99.90;;;;;;5091508;28;20024;-76
2023/12/06 04:44:58;;;;;;;176.98;73.13;;;2.00;99.90;;;;;;5091817;28;20024;-75
2023/12/06 04:47:24;;;;;;;171.43;70.88;;;2.00;99.90;;;;;;5091098;28;20024;-75
2023/12/06 04:49:51;;;;;;;167.98;71.47;;;1.90;99.90;;;;;;5093176;28;20092;-74
2023/12/06 04:52:16;;;;;;;173.20;71.38;;;2.00;99.90;;;;;;5091871;28;20051;-75
2023/12/06 04:54:42;;;;;;;166.43;70.68;;;2.00;99.90;;;;;;5093338;28;20507;-74
2023/12/06 04:57:08;;;;;;;166.48;71.38;;;2.00;99.90;;;;;;5092726;28;20036;-73
2023/12/06 04:59:33;;;;;;;171.35;71.90;;;2.00;99.90;;;;;;5091140;28;20040;-74
2023/12/06 05:01:59;;;;;;;166.65;69.38;;;2.00;99.90;;;;;;5090934;28;20126;-74
2023/12/06 05:04:24;;;;;;;176.55;72.80;;;2.00;99.90;;;;;;5091227;28;20020;-73
2023/12/06 05:06:50;;;;;;;156.95;70.43;;;2.00;99.90;;;;;;5091424;28;20036;-75
2023/12/06 05:09:16;;;;;;;174.25;72.80;;;2.00;99.90;;;;;;5091227;28;20016;-75
2023/12/06 05:11:42;;;;;;;169.00;73.00;;;2.10;99.90;;;;;;5094414;28;20162;-76
2023/12/06 05:14:07;;;;;;;170.90;73.40;;;2.00;99.90;;;;;;5095183;28;20077;-75
2023/12/06 05:16:33;;;;;;;181.13;74.65;;;2.10;99.90;;;;;;5095004;28;20028;-74
2023/12/06 05:18:58;;;;;;;174.77;72.50;;;2.10;99.90;;;;;;5094854;28;20086;-76
2023/12/06 05:21:24;;;;;;;183.63;75.35;;;2.10;99.90;;;;;;5100268;28;20032;-74
2023/12/06 05:23:50;;;;;;;175.43;73.82;;;2.00;99.90;;;;;;5098232;28;20378;-77
2023/12/06 05:26:15;;;;;;;177.90;74.38;;;2.00;99.90;;;;;;5110372;28;20031;-78
2023/12/06 05:28:41;;;;;;;178.27;75.28;;;2.00;99.90;;;;;;5110059;28;20020;-78
2023/12/06 05:31:06;;;;;;;185.55;75.45;;;2.00;99.90;;;;;;5102577;28;20110;-77
2023/12/06 05:33:32;;;;;;;184.93;75.35;;;2.00;99.90;;;;;;5100110;28;20034;-76
2023/12/06 05:35:57;;;;;;;166.98;72.93;;;2.00;99.90;;;;;;5098392;28;20107;-76
2023/12/06 05:38:23;;;;;;;184.95;76.57;;;2.00;99.90;;;;;;5112504;28;20027;-76
2023/12/06 05:40:50;;;;;;;179.15;75.75;;;2.00;99.90;;;;;;5098994;28;20028;-77
2023/12/06 05:43:15;;;;;;;179.88;75.28;;;1.90;99.90;;;;;;5109160;28;20031;-76
2023/12/06 05:45:41;;;;;;;181.85;76.10;;;2.00;99.90;;;;;;5114514;28;20036;-77
2023/12/06 05:48:07;;;;;;;187.77;76.13;;;2.00;99.90;;;;;;5104344;28;20022;-72
2023/12/06 05:50:33;;;;;;;195.65;76.90;;;2.00;99.90;;;;;;5106551;28;20031;-75
2023/12/06 05:52:58;;;;;;;195.40;77.70;;;2.00;99.90;;;;;;5114588;28;20019;-73
2023/12/06 05:55:24;;;;;;;197.15;78.45;;;2.00;99.90;;;;;;5114508;28;20028;-73
2023/12/06 05:57:50;;;;;;;195.95;80.15;;;2.00;99.90;;;;;;5114176;28;20106;-74
2023/12/06 06:00:17;;;;;;;204.68;81.00;;;2.00;99.90;;;;;;5115491;28;20045;-76
2023/12/06 06:02:43;;;;;;;189.40;77.55;;;2.00;99.90;;;;;;5119057;28;20080;-76
2023/12/06 06:05:09;;;;;;;207.13;81.38;;;1.90;99.90;;;;;;5116820;28;20073;-76
2023/12/06 06:07:35;;;;;;;198.27;78.85;;;1.90;99.90;;;;;;5114419;28;20023;-73
2023/12/06 06:10:02;;;;;;;207.82;82.15;;;2.00;99.90;;;;;;5114111;28;20099;-74
2023/12/06 06:12:27;;;;;;;202.93;82.07;;;2.00;99.90;;;;;;5113657;28;20023;-73
2023/12/06 06:14:53;;;;;;;206.43;82.80;;;2.00;99.90;;;;;;5114168;28;20024;-75
2023/12/06 06:17:18;;;;;;;208.05;81.90;;;2.00;99.90;;;;;;5115267;28;20066;-75
2023/12/06 06:19:44;;;;;;;205.45;78.95;;;2.00;99.90;;;;;;5109893;28;20038;-76
2023/12/06 06:22:10;;;;;;;201.18;78.40;;;2.00;99.90;;;;;;5104673;28;20028;-78
2023/12/06 06:24:35;;;;;;;205.80;82.85;;;2.00;99.90;;;;;;5100502;28;20016;-76
2023/12/06 06:27:02;;;;;;;215.18;83.65;;;2.10;99.90;;;;;;5097513;28;20094;-76
2023/12/06 06:29:28;;;;;;;204.85;80.95;;;2.10;99.90;;;;;;5105631;28;20028;-71
2023/12/06 06:31:53;;;;;;;205.57;83.18;;;2.00;99.90;;;;;;5102148;28;20527;-73
2023/12/06 06:34:20;;;;;;;224.43;84.85;;;2.00;99.90;;;;;;5109607;28;20020;-74
2023/12/06 06:36:45;;;;;;;226.18;83.32;;;2.00;99.90;;;;;;5108586;28;20034;-75
2023/12/06 06:39:12;;;;;;;211.20;80.63;;;2.00;99.90;;;;;;5108416;28;20110;-75
2023/12/06 06:41:38;;;;;;;224.38;84.88;;;2.10;99.90;;;;;;5108915;28;20028;-75
2023/12/06 06:44:04;;;;;;;216.77;83.43;;;2.10;99.90;;;;;;5100416;28;20020;-75
2023/12/06 06:46:29;;;;;;;206.35;81.05;;;2.10;99.90;;;;;;5099225;28;20034;-74
2023/12/06 06:48:56;;;;;;;222.35;83.25;;;2.10;99.90;;;;;;5113405;28;20016;-76
2023/12/06 06:51:31;;;;;;;214.93;82.28;;;2.10;99.90;;;;;;5094120;28;20016;-76
2023/12/06 06:53:58;;;;;;;214.35;82.07;;;2.10;99.90;;;;;;5101172;28;20474;-75
2023/12/06 06:56:23;;;;;;;224.38;85.78;;;2.10;99.90;;;;;;5110933;28;20020;-74
2023/12/06 06:58:49;;;;;;;232.15;83.78;;;2.10;99.90;;;;;;5111051;28;20042;-72
2023/12/06 07:01:14;;;;;;;222.68;86.07;;;2.10;99.90;;;;;;5105356;28;20024;-75
2023/12/06 07:03:40;;;;;;;219.25;83.07;;;2.10;99.90;;;;;;5111008;28;20441;-76
2023/12/06 07:06:05;;;;;;;226.48;85.38;;;2.20;99.90;;;;;;5107679;28;20032;-76
2023/12/06 07:08:32;;;;;;;225.57;83.75;;;2.10;99.90;;;;;;5108551;28;20031;-75
2023/12/06 07:10:57;;;;;;;225.90;82.90;;;2.20;99.90;;;;;;5111029;28;20420;-74
2023/12/06 07:13:23;;;;;;;242.93;87.30;;;2.20;99.90;;;;;;5112559;28;20058;-74
2023/12/06 07:15:48;;;;;;;238.50;86.30;;;2.20;99.90;;;;;;5113577;28;20039;-73
2023/12/06 07:18:14;;;;;;;232.68;84.50;;;2.20;99.90;;;;;;5098476;28;20028;-73
2023/12/06 07:20:40;;;;;;;234.30;84.97;;;2.20;99.90;;;;;;5107819;28;20436;-75
2023/12/06 07:23:06;;;;;;;245.00;87.63;;;2.20;99.90;;;;;;5108892;28;20437;-73
2023/12/06 07:25:32;;;;;;;239.48;87.18;;;2.20;99.90;;;;;;5093022;28;20360;-74
2023/12/06 07:27:57;;;;;;;244.80;86.85;;;2.20;99.90;;;;;;5092469;28;20111;-71
2023/12/06 07:30:23;;;;;;;247.10;90.50;;;2.20;99.90;;;;;;5097565;28;20020;-73
2023/12/06 07:32:49;;;;;;;241.00;88.53;;;2.20;99.90;;;;;;5102002;28;20023;-75
2023/12/06 07:35:14;;;;;;;230.73;88.78;;;2.20;99.90;;;;;;5102297;28;20031;-75
2023/12/06 07:37:40;;;;;;;241.63;92.10;;;2.20;99.90;;;;;;5112493;28;20028;-74
2023/12/06 07:40:09;;;;;;;249.63;88.78;;;2.10;99.90;;;;;;5112421;28;20094;-76
2023/12/06 07:42:35;;;;;;;255.90;90.85;;;2.20;99.90;;;;;;5101716;28;20527;-76
2023/12/06 07:45:00;;;;;;;247.25;89.55;;;2.20;99.90;;;;;;5107589;28;20111;-74
2023/12/06 07:47:26;;;;;;;250.75;90.03;;;2.30;99.90;;;;;;5112112;28;20019;-73
2023/12/06 07:49:51;;;;;;;256.52;90.28;;;2.30;99.90;;;;;;5112460;28;20019;-72
2023/12/06 07:52:17;;;;;;;258.73;92.47;;;2.40;99.90;;;;;;5112207;28;20073;-73
2023/12/06 07:54:43;;;;;;;245.57;89.93;;;2.30;99.90;;;;;;5112211;28;20027;-71
2023/12/06 07:57:09;;;;;;;256.83;93.20;;;2.30;99.90;;;;;;5112338;28;20027;-72
2023/12/06 07:59:34;;;;;;;254.77;89.72;;;2.30;99.90;;;;;;5111616;28;20046;-73
2023/12/06 08:02:00;;;;;;;250.52;90.32;;;2.30;99.90;;;;;;5111582;28;20093;-71
2023/12/06 08:04:27;;;;;;;235.00;88.82;;;2.30;99.90;;;;;;5111971;28;20047;-74
2023/12/06 08:06:52;;;;;;;246.07;90.80;;;2.30;99.90;;;;;;5111929;28;20527;-74
2023/12/06 08:09:18;;;;;;;248.15;90.65;;;2.40;99.90;;;;;;5111559;28;20016;-73
2023/12/06 08:11:44;;;;;;;244.68;87.90;;;2.30;99.90;;;;;;5112190;28;20490;-74
2023/12/06 08:14:09;;;;;;;235.63;88.50;;;2.30;99.90;;;;;;5109312;28;20028;-74
2023/12/06 08:16:35;;;;;;;251.40;91.63;;;2.30;99.90;;;;;;5112538;28;20118;-74
2023/12/06 08:19:01;;;;;;;261.95;99.47;;;2.30;99.90;;;;;;5107785;28;20030;-73
2023/12/06 08:21:26;;;;;;;247.77;93.65;;;2.30;99.90;;;;;;5092585;28;20429;-73
2023/12/06 08:23:52;;;;;;;237.27;89.25;;;2.30;99.90;;;;;;5094132;28;20067;-73
2023/12/06 08:26:17;;;;;;;249.27;90.53;;;2.40;99.90;;;;;;5111872;28;20016;-71
2023/12/06 08:28:43;;;;;;;246.65;92.55;;;2.40;99.90;;;;;;5111597;28;20427;-73
2023/12/06 08:31:08;;;;;;;255.40;93.15;;;2.40;99.90;;;;;;5112329;28;20032;-73
2023/12/06 08:33:35;;;;;;;263.27;95.78;;;2.40;99.90;;;;;;5111770;28;20467;-76
2023/12/06 08:36:01;;;;;;;271.98;94.95;;;2.40;99.90;;;;;;5111805;28;20554;-75
2023/12/06 08:38:26;;;;;;;267.02;95.10;;;2.40;99.90;;;;;;5111674;28;20107;-73
2023/12/06 08:40:52;;;;;;;257.90;94.20;;;2.40;99.90;;;;;;5111595;28;20032;-75
2023/12/06 08:43:17;;;;;;;273.60;97.30;;;2.40;99.90;;;;;;5111710;28;20102;-74
2023/12/06 08:45:43;;;;;;;275.88;95.10;;;2.40;99.90;;;;;;5113210;28;20081;-74
2023/12/06 08:48:09;;;;;;;271.92;93.68;;;2.30;99.90;;;;;;5115850;28;20024;-73
2023/12/06 08:50:35;;;;;;;281.05;97.25;;;2.30;99.90;;;;;;5115337;28;20467;-73
2023/12/06 08:53:01;;;;;;;271.35;95.43;;;2.20;99.90;;;;;;5115240;28;20543;-72
2023/12/06 08:55:26;;;;;;;281.73;95.47;;;2.20;99.90;;;;;;5115554;28;20032;-71
2023/12/06 08:57:52;;;;;;;286.30;96.22;;;2.20;99.90;;;;;;5115194;28;20435;-71
2023/12/06 09:00:18;;;;;;;277.65;96.13;;;2.20;99.90;;;;;;5115159;28;20035;-71
2023/12/06 09:02:43;;;;;;;274.42;93.97;;;2.10;99.90;;;;;;5115348;28;20028;-74
2023/12/06 09:05:11;;;;;;;282.38;94.13;;;2.20;99.90;;;;;;5116264;28;20055;-73
2023/12/06 09:07:37;;;;;;;261.52;91.65;;;2.20;99.90;;;;;;5116394;28;20064;-72
2023/12/06 09:10:03;;;;;;;280.80;94.45;;;2.20;99.90;;;;;;5116638;28;20421;-74
2023/12/06 09:12:29;;;;;;;269.13;91.75;;;2.10;99.90;;;;;;5115629;28;20545;-72
2023/12/06 09:14:55;;;;;;;274.67;94.15;;;2.20;99.90;;;;;;5115756;28;20152;-73
2023/12/06 09:17:20;;;;;;;279.70;95.35;;;2.20;99.90;;;;;;5115454;28;20031;-74
2023/12/06 09:19:46;;;;;;;282.67;95.22;;;2.20;99.90;;;;;;5115703;28;20136;-73
2023/12/06 09:22:12;;;;;;;275.67;94.43;;;2.30;99.90;;;;;;5115320;28;20042;-72
2023/12/06 09:24:37;;;;;;;274.77;91.38;;;2.30;99.90;;;;;;5115078;28;20019;-74
2023/12/06 09:27:03;;;;;;;272.23;93.90;;;2.30;99.90;;;;;;5115108;28;20020;-73
2023/12/06 09:29:29;;;;;;;276.67;94.30;;;2.30;99.90;;;;;;5114631;28;20050;-74
2023/12/06 09:31:55;;;;;;;257.25;92.88;;;2.30;99.90;;;;;;5114995;28;20024;-73
2023/12/06 09:34:20;;;;;;;260.85;88.45;;;2.30;99.90;;;;;;5115101;28;20028;-77
2023/12/06 09:36:46;;;;;;;273.73;95.97;;;2.30;99.90;;;;;;5115715;28;20035;-75
2023/12/06 09:39:15;;;;;;;255.55;90.55;;;2.30;99.90;;;;;;5115463;28;20038;-74
2023/12/06 09:41:42;;;;;;;268.48;93.18;;;2.30;99.90;;;;;;5115149;28;20026;-72
2023/12/06 09:44:07;;;;;;;257.15;92.05;;;2.30;99.90;;;;;;5114920;28;20041;-74
2023/12/06 09:46:33;;;;;;;248.20;88.60;;;2.40;99.90;;;;;;5115113;28;20024;-73
2023/12/06 09:49:00;;;;;;;243.35;90.78;;;2.40;99.90;;;;;;5115509;28;20046;-73
2023/12/06 09:51:26;;;;;;;249.70;93.10;;;2.40;99.90;;;;;;5114434;28;20027;-72
2023/12/06 09:53:52;;;;;;;235.65;89.28;;;2.50;99.90;;;;;;5115049;28;20019;-73
2023/12/06 09:56:18;;;;;;;228.60;88.40;;;2.50;99.90;;;;;;5114138;28;20024;-74
2023/12/06 09:58:45;;;;;;;233.57;87.20;;;2.50;99.90;;;;;;5113641;28;20119;-72
2023/12/06 10:01:11;;;;;;;239.40;89.05;;;2.50;99.90;;;;;;5114217;28;20035;-73
2023/12/06 10:03:38;;;;;;;231.88;86.80;;;2.50;99.90;;;;;;5114395;28;20024;-74
2023/12/06 10:06:04;;;;;;;239.88;90.93;;;2.60;99.90;;;;;;5114602;28;20012;-74
2023/12/06 10:08:33;;;;;;;237.35;88.00;;;2.60;99.90;;;;;;5114132;28;20073;-73
2023/12/06 10:11:06;;;;;;;241.70;89.28;;;2.50;99.90;;;;;;5114386;28;20028;-74
2023/12/06 10:13:36;;;;;;;247.88;92.95;;;2.60;99.90;;;;;;5114331;28;20026;-73
2023/12/06 10:16:11;;;;;;;245.15;89.60;;;2.60;99.90;;;;;;5114177;28;20030;-74
2023/12/06 10:18:37;;;;;;;251.63;92.30;;;2.80;99.90;;;;;;5113904;28;20045;-77
2023/12/06 10:21:03;;;;;;;246.75;91.93;;;2.60;99.90;;;;;;5105572;28;20028;-72
2023/12/06 10:23:30;;;;;;;240.15;89.20;;;2.80;99.90;;;;;;5093535;28;20025;-74
2023/12/06 10:25:56;;;;;;;251.63;92.65;;;2.80;99.90;;;;;;5101931;28;20031;-74
2023/12/06 10:28:21;;;;;;;258.98;92.88;;;2.70;99.90;;;;;;5113870;28;20026;-73
2023/12/06 10:30:58;;;;;;;254.35;92.07;;;2.80;99.90;;;;;;5114065;28;20382;-74
2023/12/06 10:33:26;;;;;;;268.20;95.05;;;2.70;99.90;;;;;;5114398;28;20026;-73
2023/12/06 10:35:53;;;;;;;264.65;93.15;;;2.80;99.90;;;;;;5107789;28;20546;-73
2023/12/06 10:38:20;;;;;;;255.88;91.70;;;2.80;99.90;;;;;;5113844;28;20023;-74
2023/12/06 10:40:47;;;;;;;260.42;93.15;;;2.80;99.90;;;;;;5107874;28;20016;-73
2023/12/06 10:43:13;;;;;;;272.70;93.50;;;2.80;99.90;;;;;;5092970;28;20020;-73
2023/12/06 10:45:40;;;;;;;265.55;95.35;;;2.80;99.90;;;;;;5096894;28;20022;-74
2023/12/06 10:48:08;;;;;;;255.88;91.75;;;2.70;99.90;;;;;;5112313;28;20027;-74
2023/12/06 10:50:34;;;;;;;262.98;90.07;;;2.70;99.90;;;;;;5113650;28;20103;-74
2023/12/06 10:53:03;;;;;;;255.57;91.35;;;2.70;99.90;;;;;;5113295;28;20027;-73
2023/12/06 10:55:32;;;;;;;264.85;93.72;;;2.70;99.90;;;;;;5116862;28;20402;-74
2023/12/06 10:58:00;;;;;;;257.77;92.88;;;2.70;99.90;;;;;;5120452;28;20035;-73
2023/12/06 11:00:26;;;;;;;266.80;91.60;;;2.70;99.90;;;;;;5114450;28;20556;-74
2023/12/06 11:02:55;;;;;;;250.27;89.20;;;2.80;99.90;;;;;;5112843;28;20030;-76
2023/12/06 11:05:24;;;;;;;259.27;92.70;;;2.80;99.90;;;;;;5113986;28;20016;-74
2023/12/06 11:08:02;;;;;;;252.07;90.10;;;2.80;99.90;;;;;;5114186;28;20034;-73
2023/12/06 11:10:55;;;;;;;263.02;93.38;;;2.80;99.90;;;;;;5113773;28;20023;-74
2023/12/06 11:13:53;;;;;;;263.45;92.15;;;2.80;99.90;;;;;;5113151;28;20040;-74
2023/12/06 11:16:22;;;;;;;252.23;89.90;;;2.80;99.90;;;;;;5113726;28;20020;-74
2023/12/06 11:18:50;;;;;;;258.13;91.20;;;2.80;99.90;;;;;;5118309;28;20016;-74
2023/12/06 11:21:19;;;;;;;251.98;92.90;;;2.90;99.90;;;;;;5114467;28;20094;-73
2023/12/06 11:23:46;;;;;;;254.55;91.97;;;2.90;99.90;;;;;;5111846;28;20363;-73
2023/12/06 11:26:12;;;;;;;257.17;90.32;;;2.90;99.90;;;;;;5111858;28;20030;-73
2023/12/06 11:28:40;;;;;;;257.98;92.88;;;2.90;99.90;;;;;;5111549;28;20024;-73
2023/12/06 11:31:07;;;;;;;265.48;90.07;;;2.90;99.90;;;;;;5111895;28;20034;-74
2023/12/06 11:33:36;;;;;;;262.42;94.03;;;2.90;99.90;;;;;;5111469;28;20023;-73
2023/12/06 11:36:02;;;;;;;258.65;94.65;;;2.90;99.90;;;;;;5111700;28;20055;-75
2023/12/06 11:38:35;;;;;;;243.02;90.10;;;2.90;99.90;;;;;;5111861;28;20054;-73
2023/12/06 11:41:02;;;;;;;263.27;93.97;;;2.90;99.90;;;;;;5111489;28;20027;-73
2023/12/06 11:43:37;;;;;;;259.70;91.95;;;2.90;99.90;;;;;;5112141;28;20038;-75
2023/12/06 11:46:07;;;;;;;257.30;91.55;;;2.90;99.90;;;;;;5112154;28;20059;-72
2023/12/06 11:49:02;;;;;;;263.88;94.40;;;2.90;99.90;;;;;;5111569;28;20035;-73
2023/12/06 11:51:29;;;;;;;256.85;91.40;;;3.00;99.90;;;;;;5098736;28;20054;-75
2023/12/06 11:53:56;;;;;;;259.95;92.63;;;3.00;99.90;;;;;;5114228;28;20249;-73
2023/12/06 11:56:23;;;;;;;262.23;92.28;;;3.00;99.90;;;;;;5111450;28;20027;-74
2023/12/06 11:58:51;;;;;;;263.10;94.60;;;3.00;99.90;;;;;;5111201;28;20054;-74
2023/12/06 12:01:20;;;;;;;257.40;92.47;;;3.00;99.90;;;;;;5111471;28;20023;-75
2023/12/06 12:03:48;;;;;;;261.75;93.07;;;3.00;99.90;;;;;;5111463;28;20058;-74
2023/12/06 12:06:15;;;;;;;257.73;96.13;;;3.10;99.90;;;;;;5112005;28;20429;-73
2023/12/06 12:08:42;;;;;;;260.77;91.07;;;3.10;99.90;;;;;;5112373;28;20038;-73
2023/12/06 12:11:09;;;;;;;263.35;95.35;;;3.10;99.90;;;;;;5112698;28;20091;-74
2023/12/06 12:13:42;;;;;;;277.00;93.90;;;3.20;99.90;;;;;;5112446;28;20114;-73
2023/12/06 12:16:10;;;;;;;272.02;96.68;;;3.10;99.90;;;;;;5112006;28;20082;-73
2023/12/06 12:18:36;;;;;;;263.88;95.32;;;3.10;99.90;;;;;;5101375;28;20118;-72
2023/12/06 12:21:10;;;;;;;278.95;97.57;;;3.10;99.90;;;;;;5089581;28;20443;-73
2023/12/06 12:23:35;;;;;;;264.80;95.72;;;3.10;99.90;;;;;;5092407;28;20024;-74